createdAt,value
2022-08-03T00:11:23.300Z,20.17
2022-08-03T00:33:10.911Z,19.91
2022-08-03T00:54:56.710Z,19.68
2022-08-03T01:16:53.871Z,19.57
2022-08-03T01:38:45.118Z,19.28
2022-08-03T02:00:34.453Z,19.01
2022-08-03T02:22:20.428Z,19.01
2022-08-03T02:44:12.165Z,18.87
2022-08-03T03:05:59.848Z,18.86
2022-08-03T03:27:48.831Z,19.07
2022-08-03T03:49:37.516Z,19.03
2022-08-03T04:11:30.031Z,19.02
2022-08-03T04:33:18.697Z,19.14
2022-08-03T04:55:06.008Z,18.98
2022-08-03T05:16:51.670Z,18.97
2022-08-03T05:38:38.131Z,19.35
2022-08-03T06:00:24.328Z,19.69
2022-08-03T06:22:11.704Z,20.35
2022-08-03T06:44:02.998Z,21.59
2022-08-03T07:05:51.343Z,22.85
2022-08-03T07:27:38.372Z,23.94
2022-08-03T07:49:24.211Z,24.65
2022-08-03T08:11:10.329Z,25.79
2022-08-03T08:32:56.167Z,34.43
2022-08-03T08:54:44.972Z,46.23
2022-08-03T09:16:30.935Z,45.30
2022-08-03T09:38:18.564Z,36.23
2022-08-03T10:00:14.832Z,33.95
2022-08-03T10:22:05.212Z,33.36
2022-08-03T10:43:54.596Z,33.47
2022-08-03T11:05:42.723Z,37.70
2022-08-03T11:27:33.269Z,45.38
2022-08-03T11:49:24.734Z,53.48
2022-08-03T12:11:12.366Z,57.68
2022-08-03T12:32:58.476Z,57.42
2022-08-03T12:54:46.112Z,59.66
2022-08-03T13:16:32.485Z,60.59
2022-08-03T13:38:18.498Z,59.60
2022-08-03T14:00:10.530Z,57.50
2022-08-03T14:22:03.692Z,54.45
2022-08-03T14:44:01.624Z,50.58
2022-08-03T15:05:48.249Z,45.17
2022-08-03T15:27:34.140Z,41.12
2022-08-03T15:49:20.899Z,39.14
2022-08-03T16:11:06.720Z,37.82
2022-08-03T16:32:52.437Z,36.84
2022-08-03T16:54:38.345Z,35.25
2022-08-03T17:16:24.259Z,33.55
2022-08-03T17:38:15.820Z,32.37
2022-08-03T18:00:22.959Z,31.41
2022-08-03T18:22:10.109Z,30.55
2022-08-03T18:44:07.119Z,29.71
2022-08-03T19:06:06.988Z,28.96
2022-08-03T19:28:03.065Z,28.31
2022-08-03T19:50:06.045Z,27.83
2022-08-03T20:11:57.636Z,27.24
2022-08-03T20:33:48.578Z,26.58
2022-08-03T20:55:47.483Z,26.04
2022-08-03T21:17:48.221Z,25.51
2022-08-03T21:39:34.553Z,25.03
2022-08-03T22:01:23.152Z,24.60
2022-08-03T22:23:10.566Z,24.12
2022-08-03T22:44:58.082Z,23.78
2022-08-03T23:06:46.961Z,23.49
2022-08-03T23:28:35.613Z,23.20
2022-08-03T23:50:21.475Z,22.88
